sensor_id;sensor_type;location;lat;lon;timestamp;pressure;altitude;pressure_sealevel;temperature;humidity
9249;BME280;4660;41.768;26.198;2023-03-18T00:00:48;101435.84;;;2.60;100.00
9249;BME280;4660;41.768;26.198;2023-03-18T00:03:16;101455.72;;;2.70;100.00
9249;BME280;4660;41.768;26.198;2023-03-18T00:05:43;101442.09;;;2.59;100.00
9249;BME280;4660;41.768;26.198;2023-03-18T00:08:11;101444.09;;;2.54;100.00
9249;BME280;4660;41.768;26.198;2023-03-18T00:10:38;101439.53;;;2.58;100.00
9249;BME280;4660;41.768;26.198;2023-03-18T00:13:08;101446.41;;;2.62;100.00
9249;BME280;4660;41.768;26.198;2023-03-18T00:15:41;101420.84;;;2.40;100.00
9249;BME280;4660;41.768;26.198;2023-03-18T00:18:08;101458.34;;;2.72;100.00
9249;BME280;4660;41.768;26.198;2023-03-18T00:20:34;101432.34;;;2.60;100.00
9249;BME280;4660;41.768;26.198;2023-03-18T00:23:14;101448.31;;;2.77;100.00
9249;BME280;4660;41.768;26.198;2023-03-18T00:25:51;101443.66;;;2.63;100.00
9249;BME280;4660;41.768;26.198;2023-03-18T00:28:27;101437.25;;;2.50;100.00
9249;BME280;4660;41.768;26.198;2023-03-18T00:30:54;101436.50;;;2.46;100.00
9249;BME280;4660;41.768;26.198;2023-03-18T00:33:24;101445.13;;;2.52;100.00
9249;BME280;4660;41.768;26.198;2023-03-18T00:35:52;101442.31;;;2.55;100.00
9249;BME280;4660;41.768;26.198;2023-03-18T00:38:20;101431.94;;;2.50;100.00
9249;BME280;4660;41.768;26.198;2023-03-18T00:40:48;101439.81;;;2.52;100.00
9249;BME280;4660;41.768;26.198;2023-03-18T00:43:47;101399.84;;;2.36;100.00
9249;BME280;4660;41.768;26.198;2023-03-18T00:46:38;101422.84;;;2.35;100.00
9249;BME280;4660;41.768;26.198;2023-03-18T00:49:06;101431.63;;;2.37;100.00
9249;BME280;4660;41.768;26.198;2023-03-18T00:51:35;101426.44;;;2.34;100.00
9249;BME280;4660;41.768;26.198;2023-03-18T00:54:06;101423.44;;;2.42;100.00
9249;BME280;4660;41.768;26.198;2023-03-18T00:56:34;101435.66;;;2.46;100.00
9249;BME280;4660;41.768;26.198;2023-03-18T00:59:04;101431.34;;;2.43;100.00
9249;BME280;4660;41.768;26.198;2023-03-18T01:01:32;101426.28;;;2.56;100.00
9249;BME280;4660;41.768;26.198;2023-03-18T01:03:58;101415.31;;;2.64;100.00
9249;BME280;4660;41.768;26.198;2023-03-18T01:06:36;101418.13;;;2.61;100.00
9249;BME280;4660;41.768;26.198;2023-03-18T01:09:13;101407.28;;;2.65;100.00
9249;BME280;4660;41.768;26.198;2023-03-18T01:11:42;101414.81;;;2.56;100.00
9249;BME280;4660;41.768;26.198;2023-03-18T01:14:08;101398.31;;;2.49;100.00
9249;BME280;4660;41.768;26.198;2023-03-18T01:16:36;101417.53;;;2.54;100.00
9249;BME280;4660;41.768;26.198;2023-03-18T01:19:03;101407.94;;;2.52;100.00
9249;BME280;4660;41.768;26.198;2023-03-18T01:21:29;101409.50;;;2.56;100.00
9249;BME280;4660;41.768;26.198;2023-03-18T01:23:58;101413.09;;;2.55;100.00
9249;BME280;4660;41.768;26.198;2023-03-18T01:26:34;101404.91;;;2.40;100.00
9249;BME280;4660;41.768;26.198;2023-03-18T01:29:03;101422.44;;;2.44;100.00
9249;BME280;4660;41.768;26.198;2023-03-18T01:31:31;101403.03;;;2.42;100.00
9249;BME280;4660;41.768;26.198;2023-03-18T01:34:00;101402.56;;;2.53;100.00
9249;BME280;4660;41.768;26.198;2023-03-18T01:36:28;101418.59;;;2.69;100.00
9249;BME280;4660;41.768;26.198;2023-03-18T01:38:55;101404.84;;;2.61;100.00
9249;BME280;4660;41.768;26.198;2023-03-18T01:41:24;101414.44;;;2.63;100.00
9249;BME280;4660;41.768;26.198;2023-03-18T01:43:51;101414.41;;;2.65;100.00
9249;BME280;4660;41.768;26.198;2023-03-18T01:46:42;101390.31;;;2.68;100.00
9249;BME280;4660;41.768;26.198;2023-03-18T01:51:44;101401.50;;;2.93;100.00
9249;BME280;4660;41.768;26.198;2023-03-18T01:54:13;101408.28;;;2.99;100.00
9249;BME280;4660;41.768;26.198;2023-03-18T01:56:43;101409.69;;;3.06;100.00
9249;BME280;4660;41.768;26.198;2023-03-18T01:59:11;101396.31;;;2.90;100.00
9249;BME280;4660;41.768;26.198;2023-03-18T02:02:00;101407.22;;;2.84;100.00
9249;BME280;4660;41.768;26.198;2023-03-18T02:04:49;101401.72;;;2.89;100.00
9249;BME280;4660;41.768;26.198;2023-03-18T02:07:31;101404.56;;;2.84;100.00
9249;BME280;4660;41.768;26.198;2023-03-18T02:10:05;101394.66;;;2.88;100.00
9249;BME280;4660;41.768;26.198;2023-03-18T02:12:38;101397.91;;;2.94;100.00
9249;BME280;4660;41.768;26.198;2023-03-18T02:15:14;101397.94;;;2.93;100.00
9249;BME280;4660;41.768;26.198;2023-03-18T02:17:46;101399.59;;;2.95;100.00
9249;BME280;4660;41.768;26.198;2023-03-18T02:23:30;101402.34;;;3.11;100.00
9249;BME280;4660;41.768;26.198;2023-03-18T02:26:23;101402.53;;;3.08;100.00
9249;BME280;4660;41.768;26.198;2023-03-18T02:29:06;101391.47;;;2.98;100.00
9249;BME280;4660;41.768;26.198;2023-03-18T02:31:36;101395.44;;;2.90;100.00
9249;BME280;4660;41.768;26.198;2023-03-18T02:34:05;101392.72;;;2.91;100.00
9249;BME280;4660;41.768;26.198;2023-03-18T02:36:35;101404.63;;;3.19;100.00
9249;BME280;4660;41.768;26.198;2023-03-18T02:39:02;101408.72;;;3.43;100.00
9249;BME280;4660;41.768;26.198;2023-03-18T02:41:33;101400.41;;;3.32;100.00
9249;BME280;4660;41.768;26.198;2023-03-18T02:44:00;101404.50;;;3.22;100.00
9249;BME280;4660;41.768;26.198;2023-03-18T02:46:46;101409.25;;;3.15;100.00
9249;BME280;4660;41.768;26.198;2023-03-18T02:49:19;101409.19;;;3.17;100.00
9249;BME280;4660;41.768;26.198;2023-03-18T02:51:46;101411.34;;;3.09;100.00
9249;BME280;4660;41.768;26.198;2023-03-18T02:54:21;101409.19;;;3.17;100.00
9249;BME280;4660;41.768;26.198;2023-03-18T02:56:49;101398.38;;;3.02;100.00
9249;BME280;4660;41.768;26.198;2023-03-18T02:59:20;101393.06;;;3.02;100.00
9249;BME280;4660;41.768;26.198;2023-03-18T03:01:49;101406.34;;;3.20;100.00
9249;BME280;4660;41.768;26.198;2023-03-18T03:04:19;101414.88;;;3.26;100.00
9249;BME280;4660;41.768;26.198;2023-03-18T03:06:46;101399.00;;;3.08;100.00
9249;BME280;4660;41.768;26.198;2023-03-18T03:09:15;101421.53;;;3.35;100.00
9249;BME280;4660;41.768;26.198;2023-03-18T03:11:44;101417.44;;;3.28;100.00
9249;BME280;4660;41.768;26.198;2023-03-18T03:14:13;101418.94;;;3.34;100.00
9249;BME280;4660;41.768;26.198;2023-03-18T03:16:40;101406.97;;;3.42;100.00
9249;BME280;4660;41.768;26.198;2023-03-18T03:19:05;101415.09;;;3.56;100.00
9249;BME280;4660;41.768;26.198;2023-03-18T03:21:33;101418.84;;;3.70;100.00
9249;BME280;4660;41.768;26.198;2023-03-18T03:24:06;101427.41;;;3.59;100.00
9249;BME280;4660;41.768;26.198;2023-03-18T03:26:33;101429.44;;;3.54;100.00
9249;BME280;4660;41.768;26.198;2023-03-18T03:29:03;101429.34;;;3.55;100.00
9249;BME280;4660;41.768;26.198;2023-03-18T03:31:35;101418.72;;;3.38;100.00
9249;BME280;4660;41.768;26.198;2023-03-18T03:34:02;101416.22;;;3.35;100.00
9249;BME280;4660;41.768;26.198;2023-03-18T03:36:32;101423.78;;;3.43;100.00
9249;BME280;4660;41.768;26.198;2023-03-18T03:38:59;101421.59;;;3.34;100.00
9249;BME280;4660;41.768;26.198;2023-03-18T03:41:26;101415.03;;;3.41;100.00
9249;BME280;4660;41.768;26.198;2023-03-18T03:43:53;101413.72;;;3.32;100.00
9249;BME280;4660;41.768;26.198;2023-03-18T03:46:20;101376.50;;;3.15;100.00
9249;BME280;4660;41.768;26.198;2023-03-18T03:48:47;101408.91;;;3.21;100.00
9249;BME280;4660;41.768;26.198;2023-03-18T03:51:15;101427.19;;;3.29;100.00
9249;BME280;4660;41.768;26.198;2023-03-18T03:53:42;101404.84;;;3.14;100.00
9249;BME280;4660;41.768;26.198;2023-03-18T03:56:11;101417.16;;;3.34;100.00
9249;BME280;4660;41.768;26.198;2023-03-18T03:58:38;101413.69;;;3.49;100.00
9249;BME280;4660;41.768;26.198;2023-03-18T04:01:06;101413.69;;;3.49;100.00
9249;BME280;4660;41.768;26.198;2023-03-18T04:03:35;101416.75;;;3.59;100.00
9249;BME280;4660;41.768;26.198;2023-03-18T04:06:04;101413.97;;;3.45;100.00
9249;BME280;4660;41.768;26.198;2023-03-18T04:08:32;101420.22;;;3.44;100.00
9249;BME280;4660;41.768;26.198;2023-03-18T04:10:57;101412.94;;;3.30;100.00
9249;BME280;4660;41.768;26.198;2023-03-18T04:13:24;101420.44;;;3.22;100.00
9249;BME280;4660;41.768;26.198;2023-03-18T04:15:50;101412.91;;;3.13;100.00
9249;BME280;4660;41.768;26.198;2023-03-18T04:18:18;101404.06;;;3.12;100.00
9249;BME280;4660;41.768;26.198;2023-03-18T04:20:46;101426.84;;;3.18;100.00
9249;BME280;4660;41.768;26.198;2023-03-18T04:23:15;101416.03;;;3.03;100.00
9249;BME280;4660;41.768;26.198;2023-03-18T04:25:41;101411.00;;;2.97;100.00
9249;BME280;4660;41.768;26.198;2023-03-18T04:28:08;101421.19;;;3.07;100.00
9249;BME280;4660;41.768;26.198;2023-03-18T04:30:35;101435.28;;;3.26;100.00
9249;BME280;4660;41.768;26.198;2023-03-18T04:33:01;101433.56;;;3.25;100.00
9249;BME280;4660;41.768;26.198;2023-03-18T04:35:28;101430.06;;;3.24;100.00
9249;BME280;4660;41.768;26.198;2023-03-18T04:37:55;101438.59;;;3.31;100.00
9249;BME280;4660;41.768;26.198;2023-03-18T04:40:26;101432.63;;;3.26;100.00
9249;BME280;4660;41.768;26.198;2023-03-18T04:42:53;101433.66;;;3.23;100.00
9249;BME280;4660;41.768;26.198;2023-03-18T04:45:21;101393.19;;;2.99;100.00
9249;BME280;4660;41.768;26.198;2023-03-18T04:47:48;101448.13;;;3.35;100.00
9249;BME280;4660;41.768;26.198;2023-03-18T04:50:14;101428.78;;;3.14;100.00
9249;BME280;4660;41.768;26.198;2023-03-18T04:52:43;101438.97;;;3.23;100.00
9249;BME280;4660;41.768;26.198;2023-03-18T04:55:10;101399.41;;;3.17;100.00
9249;BME280;4660;41.768;26.198;2023-03-18T04:57:37;101438.13;;;3.40;100.00
9249;BME280;4660;41.768;26.198;2023-03-18T05:00:06;101437.56;;;3.34;100.00
9249;BME280;4660;41.768;26.198;2023-03-18T05:02:33;101441.25;;;3.31;100.00
9249;BME280;4660;41.768;26.198;2023-03-18T05:05:01;101429.66;;;3.15;100.00
9249;BME280;4660;41.768;26.198;2023-03-18T05:07:27;101440.38;;;3.30;100.00
9249;BME280;4660;41.768;26.198;2023-03-18T05:09:55;101432.16;;;3.35;100.00
9249;BME280;4660;41.768;26.198;2023-03-18T05:12:23;101442.66;;;3.38;100.00
9249;BME280;4660;41.768;26.198;2023-03-18T05:14:51;101439.06;;;3.39;100.00
9249;BME280;4660;41.768;26.198;2023-03-18T05:17:19;101448.91;;;3.54;100.00
9249;BME280;4660;41.768;26.198;2023-03-18T05:19:46;101447.88;;;3.57;100.00
9249;BME280;4660;41.768;26.198;2023-03-18T05:22:16;101452.34;;;3.56;100.00
9249;BME280;4660;41.768;26.198;2023-03-18T05:24:44;101457.38;;;3.63;100.00
9249;BME280;4660;41.768;26.198;2023-03-18T05:27:16;101432.75;;;3.92;100.00
9249;BME280;4660;41.768;26.198;2023-03-18T05:29:43;101450.00;;;4.18;100.00
9249;BME280;4660;41.768;26.198;2023-03-18T05:32:11;101458.31;;;4.12;100.00
9249;BME280;4660;41.768;26.198;2023-03-18T05:34:39;101459.97;;;4.14;100.00
9249;BME280;4660;41.768;26.198;2023-03-18T05:37:19;101455.66;;;4.12;100.00
9249;BME280;4660;41.768;26.198;2023-03-18T05:39:47;101459.28;;;4.11;100.00
9249;BME280;4660;41.768;26.198;2023-03-18T05:42:15;101461.84;;;4.12;100.00
9249;BME280;4660;41.768;26.198;2023-03-18T05:44:42;101467.97;;;4.14;100.00
9249;BME280;4660;41.768;26.198;2023-03-18T05:47:11;101476.63;;;4.18;100.00
9249;BME280;4660;41.768;26.198;2023-03-18T05:49:36;101470.81;;;4.27;100.00
9249;BME280;4660;41.768;26.198;2023-03-18T05:52:03;101454.25;;;4.22;100.00
9249;BME280;4660;41.768;26.198;2023-03-18T05:54:30;101468.44;;;4.38;100.00
9249;BME280;4660;41.768;26.198;2023-03-18T05:56:57;101473.16;;;4.49;100.00
9249;BME280;4660;41.768;26.198;2023-03-18T05:59:26;101458.56;;;4.56;100.00
9249;BME280;4660;41.768;26.198;2023-03-18T06:01:53;101455.41;;;4.65;100.00
9249;BME280;4660;41.768;26.198;2023-03-18T06:04:20;101469.09;;;4.75;100.00
9249;BME280;4660;41.768;26.198;2023-03-18T06:06:47;101437.09;;;4.75;100.00
9249;BME280;4660;41.768;26.198;2023-03-18T06:09:15;101471.22;;;5.16;100.00
9249;BME280;4660;41.768;26.198;2023-03-18T06:11:43;101466.00;;;5.44;100.00
9249;BME280;4660;41.768;26.198;2023-03-18T06:14:12;101466.00;;;5.44;100.00
9249;BME280;4660;41.768;26.198;2023-03-18T06:16:41;101468.75;;;5.43;100.00
9249;BME280;4660;41.768;26.198;2023-03-18T06:19:10;101475.06;;;5.56;100.00
9249;BME280;4660;41.768;26.198;2023-03-18T06:21:37;101469.97;;;5.67;100.00
9249;BME280;4660;41.768;26.198;2023-03-18T06:24:03;101466.94;;;5.73;100.00
9249;BME280;4660;41.768;26.198;2023-03-18T06:26:31;101462.09;;;5.80;100.00
9249;BME280;4660;41.768;26.198;2023-03-18T06:28:59;101459.50;;;5.78;100.00
9249;BME280;4660;41.768;26.198;2023-03-18T06:31:26;101459.81;;;5.88;100.00
9249;BME280;4660;41.768;26.198;2023-03-18T06:33:54;101459.00;;;6.02;100.00
9249;BME280;4660;41.768;26.198;2023-03-18T06:36:21;101454.06;;;6.10;100.00
9249;BME280;4660;41.768;26.198;2023-03-18T06:38:49;101465.88;;;6.20;100.00
9249;BME280;4660;41.768;26.198;2023-03-18T06:41:20;101458.34;;;6.41;100.00
9249;BME280;4660;41.768;26.198;2023-03-18T06:43:46;101459.38;;;6.67;100.00
9249;BME280;4660;41.768;26.198;2023-03-18T06:46:16;101446.97;;;6.66;100.00
9249;BME280;4660;41.768;26.198;2023-03-18T06:48:45;101450.69;;;6.63;100.00
9249;BME280;4660;41.768;26.198;2023-03-18T06:51:12;101452.19;;;6.82;100.00
9249;BME280;4660;41.768;26.198;2023-03-18T06:53:39;101470.63;;;6.86;100.00
9249;BME280;4660;41.768;26.198;2023-03-18T06:56:08;101468.44;;;6.79;100.00
9249;BME280;4660;41.768;26.198;2023-03-18T06:58:34;101446.28;;;6.62;100.00
9249;BME280;4660;41.768;26.198;2023-03-18T07:01:01;101440.44;;;6.70;100.00
9249;BME280;4660;41.768;26.198;2023-03-18T07:03:47;101461.13;;;6.95;100.00
9249;BME280;4660;41.768;26.198;2023-03-18T07:06:16;101461.69;;;7.00;100.00
9249;BME280;4660;41.768;26.198;2023-03-18T07:08:45;101452.78;;;7.00;100.00
9249;BME280;4660;41.768;26.198;2023-03-18T07:11:12;101450.44;;;7.22;100.00
9249;BME280;4660;41.768;26.198;2023-03-18T07:13:39;101471.91;;;7.48;100.00
9249;BME280;4660;41.768;26.198;2023-03-18T07:16:07;101462.28;;;7.45;100.00
9249;BME280;4660;41.768;26.198;2023-03-18T07:18:35;101461.88;;;7.64;100.00
9249;BME280;4660;41.768;26.198;2023-03-18T07:21:10;101469.53;;;7.83;100.00
9249;BME280;4660;41.768;26.198;2023-03-18T07:23:36;101464.06;;;7.84;100.00
9249;BME280;4660;41.768;26.198;2023-03-18T07:26:05;101467.19;;;7.91;100.00
9249;BME280;4660;41.768;26.198;2023-03-18T07:28:34;101466.22;;;7.92;100.00
9249;BME280;4660;41.768;26.198;2023-03-18T07:31:02;101442.63;;;7.84;100.00
9249;BME280;4660;41.768;26.198;2023-03-18T07:33:30;101462.16;;;8.12;100.00
9249;BME280;4660;41.768;26.198;2023-03-18T07:35:58;101451.97;;;8.17;100.00
9249;BME280;4660;41.768;26.198;2023-03-18T07:38:26;101458.75;;;8.22;100.00
9249;BME280;4660;41.768;26.198;2023-03-18T07:40:53;101463.44;;;8.19;100.00
9249;BME280;4660;41.768;26.198;2023-03-18T07:43:19;101457.66;;;8.50;100.00
9249;BME280;4660;41.768;26.198;2023-03-18T07:45:46;101432.16;;;8.45;98.89
9249;BME280;4660;41.768;26.198;2023-03-18T07:48:13;101446.00;;;8.75;92.88
9249;BME280;4660;41.768;26.198;2023-03-18T07:50:39;101441.06;;;8.82;90.01
9249;BME280;4660;41.768;26.198;2023-03-18T07:53:06;101457.69;;;9.11;84.25
9249;BME280;4660;41.768;26.198;2023-03-18T07:55:33;101453.84;;;9.15;84.30
9249;BME280;4660;41.768;26.198;2023-03-18T07:58:00;101454.69;;;9.16;82.94
9249;BME280;4660;41.768;26.198;2023-03-18T08:00:27;101451.63;;;9.20;81.87
9249;BME280;4660;41.768;26.198;2023-03-18T08:02:55;101454.50;;;9.06;81.25
9249;BME280;4660;41.768;26.198;2023-03-18T08:05:23;101460.66;;;8.95;82.51
9249;BME280;4660;41.768;26.198;2023-03-18T08:07:49;101460.38;;;9.11;84.57
9249;BME280;4660;41.768;26.198;2023-03-18T08:10:16;101460.69;;;9.43;83.35
9249;BME280;4660;41.768;26.198;2023-03-18T08:12:46;101448.44;;;9.39;77.41
9249;BME280;4660;41.768;26.198;2023-03-18T08:15:13;101460.88;;;9.40;76.80
9249;BME280;4660;41.768;26.198;2023-03-18T08:17:40;101461.00;;;9.38;76.17
9249;BME280;4660;41.768;26.198;2023-03-18T08:20:11;101452.84;;;9.40;76.53
9249;BME280;4660;41.768;26.198;2023-03-18T08:22:38;101462.47;;;9.43;73.00
9249;BME280;4660;41.768;26.198;2023-03-18T08:25:05;101467.19;;;9.63;74.02
9249;BME280;4660;41.768;26.198;2023-03-18T08:27:33;101468.09;;;9.75;75.40
9249;BME280;4660;41.768;26.198;2023-03-18T08:30:01;101478.06;;;9.97;71.64
9249;BME280;4660;41.768;26.198;2023-03-18T08:32:27;101458.59;;;9.82;70.09
9249;BME280;4660;41.768;26.198;2023-03-18T08:34:54;101468.41;;;9.94;71.74
9249;BME280;4660;41.768;26.198;2023-03-18T08:37:22;101478.78;;;9.99;72.83
9249;BME280;4660;41.768;26.198;2023-03-18T08:39:48;101479.81;;;10.09;75.08
9249;BME280;4660;41.768;26.198;2023-03-18T08:42:14;101463.78;;;10.18;72.16
9249;BME280;4660;41.768;26.198;2023-03-18T08:44:41;101474.81;;;10.15;70.92
9249;BME280;4660;41.768;26.198;2023-03-18T08:47:11;101472.09;;;10.04;67.58
9249;BME280;4660;41.768;26.198;2023-03-18T08:49:37;101469.00;;;9.98;67.94
9249;BME280;4660;41.768;26.198;2023-03-18T08:52:06;101437.50;;;10.11;68.70
9249;BME280;4660;41.768;26.198;2023-03-18T08:54:35;101470.56;;;10.46;68.97
9249;BME280;4660;41.768;26.198;2023-03-18T08:57:02;101455.16;;;10.48;67.96
9249;BME280;4660;41.768;26.198;2023-03-18T08:59:29;101474.50;;;10.65;62.95
9249;BME280;4660;41.768;26.198;2023-03-18T09:01:56;101451.13;;;10.65;64.59
9249;BME280;4660;41.768;26.198;2023-03-18T09:04:23;101451.00;;;10.56;62.69
9249;BME280;4660;41.768;26.198;2023-03-18T09:06:54;101453.84;;;10.43;62.95
9249;BME280;4660;41.768;26.198;2023-03-18T09:09:20;101468.59;;;10.82;67.40
9249;BME280;4660;41.768;26.198;2023-03-18T09:11:47;101462.31;;;10.93;61.78
9249;BME280;4660;41.768;26.198;2023-03-18T09:14:17;101432.38;;;10.75;59.40
9249;BME280;4660;41.768;26.198;2023-03-18T09:16:43;101474.44;;;10.98;59.00
9249;BME280;4660;41.768;26.198;2023-03-18T09:19:11;101474.06;;;10.92;58.69
9249;BME280;4660;41.768;26.198;2023-03-18T09:21:38;101468.97;;;10.89;60.28
9249;BME280;4660;41.768;26.198;2023-03-18T09:24:05;101461.88;;;10.77;61.45
9249;BME280;4660;41.768;26.198;2023-03-18T09:26:32;101476.78;;;10.92;66.44
9249;BME280;4660;41.768;26.198;2023-03-18T09:28:59;101468.47;;;10.95;62.87
9249;BME280;4660;41.768;26.198;2023-03-18T09:31:27;101477.53;;;10.83;63.98
9249;BME280;4660;41.768;26.198;2023-03-18T09:33:54;101472.13;;;10.83;58.00
9249;BME280;4660;41.768;26.198;2023-03-18T09:36:21;101488.44;;;10.81;51.14
9249;BME280;4660;41.768;26.198;2023-03-18T09:38:49;101380.44;;;9.96;49.05
9249;BME280;4660;41.768;26.198;2023-03-18T09:44:34;101492.72;;;10.72;46.55
9249;BME280;4660;41.768;26.198;2023-03-18T09:56:13;101494.59;;;10.14;48.68
9249;BME280;4660;41.768;26.198;2023-03-18T09:59:00;101499.47;;;10.09;48.20
9249;BME280;4660;41.768;26.198;2023-03-18T10:01:48;101488.09;;;10.06;47.98
9249;BME280;4660;41.768;26.198;2023-03-18T10:04:25;101486.41;;;10.16;49.73
9249;BME280;4660;41.768;26.198;2023-03-18T10:07:02;101487.22;;;10.05;47.80
9249;BME280;4660;41.768;26.198;2023-03-18T10:09:53;101478.38;;;10.27;48.70
9249;BME280;4660;41.768;26.198;2023-03-18T10:12:34;101490.25;;;10.25;50.49
9249;BME280;4660;41.768;26.198;2023-03-18T10:15:29;101479.94;;;10.18;51.83
9249;BME280;4660;41.768;26.198;2023-03-18T10:24:23;101474.97;;;10.25;53.94
9249;BME280;4660;41.768;26.198;2023-03-18T10:33:16;101446.22;;;10.14;54.97
9249;BME280;4660;41.768;26.198;2023-03-18T10:36:16;101451.84;;;10.34;55.11
9249;BME280;4660;41.768;26.198;2023-03-18T10:38:58;101450.53;;;10.51;56.01
9249;BME280;4660;41.768;26.198;2023-03-18T10:41:31;101443.53;;;10.48;55.94
9249;BME280;4660;41.768;26.198;2023-03-18T10:44:11;101448.69;;;10.51;55.89
9249;BME280;4660;41.768;26.198;2023-03-18T10:46:45;101433.16;;;10.43;56.48
9249;BME280;4660;41.768;26.198;2023-03-18T10:49:27;101426.19;;;10.52;59.05
9249;BME280;4660;41.768;26.198;2023-03-18T10:55:19;101430.47;;;10.55;62.58
9249;BME280;4660;41.768;26.198;2023-03-18T10:57:46;101415.88;;;10.57;59.59
9249;BME280;4660;41.768;26.198;2023-03-18T11:00:38;101410.03;;;10.52;59.68
9249;BME280;4660;41.768;26.198;2023-03-18T11:03:05;101414.66;;;10.61;59.78
9249;BME280;4660;41.768;26.198;2023-03-18T11:05:58;101421.41;;;10.33;60.92
9249;BME280;4660;41.768;26.198;2023-03-18T11:08:41;101425.44;;;10.28;61.25
9249;BME280;4660;41.768;26.198;2023-03-18T11:11:30;101421.13;;;10.14;63.80
9249;BME280;4660;41.768;26.198;2023-03-18T11:14:11;101412.72;;;10.18;62.62
9249;BME280;4660;41.768;26.198;2023-03-18T11:17:04;101414.41;;;10.08;60.97
9249;BME280;4660;41.768;26.198;2023-03-18T11:19:49;101398.53;;;9.94;64.92
9249;BME280;4660;41.768;26.198;2023-03-18T11:22:28;101396.47;;;10.09;64.08
9249;BME280;4660;41.768;26.198;2023-03-18T11:25:24;101398.09;;;10.23;64.34
9249;BME280;4660;41.768;26.198;2023-03-18T11:27:58;101399.03;;;10.33;65.47
9249;BME280;4660;41.768;26.198;2023-03-18T11:30:34;101373.00;;;10.22;64.42
9249;BME280;4660;41.768;26.198;2023-03-18T11:33:20;101369.47;;;10.33;67.96
9249;BME280;4660;41.768;26.198;2023-03-18T11:35:56;101388.16;;;10.45;68.21
9249;BME280;4660;41.768;26.198;2023-03-18T11:38:30;101376.31;;;10.37;65.64
9249;BME280;4660;41.768;26.198;2023-03-18T11:43:59;101377.28;;;10.47;64.29
9249;BME280;4660;41.768;26.198;2023-03-18T11:46:49;101380.31;;;10.54;62.13
9249;BME280;4660;41.768;26.198;2023-03-18T11:49:30;101379.19;;;10.56;60.55
9249;BME280;4660;41.768;26.198;2023-03-18T11:52:24;101381.44;;;10.51;60.48
9249;BME280;4660;41.768;26.198;2023-03-18T12:10:16;101355.31;;;11.06;58.35
9249;BME280;4660;41.768;26.198;2023-03-18T12:25:39;101341.03;;;11.68;54.83
9249;BME280;4660;41.768;26.198;2023-03-18T12:40:33;101335.84;;;12.07;52.60
9249;BME280;4660;41.768;26.198;2023-03-18T12:51:49;101331.34;;;12.17;57.59
9249;BME280;4660;41.768;26.198;2023-03-18T12:54:28;101324.88;;;12.29;54.99
9249;BME280;4660;41.768;26.198;2023-03-18T12:57:10;101319.41;;;12.10;55.62
9249;BME280;4660;41.768;26.198;2023-03-18T12:59:44;101325.44;;;12.33;55.95
9249;BME280;4660;41.768;26.198;2023-03-18T13:04:58;101320.53;;;12.67;47.88
9249;BME280;4660;41.768;26.198;2023-03-18T13:11:22;101321.72;;;12.93;45.53
9249;BME280;4660;41.768;26.198;2023-03-18T13:13:51;101315.03;;;12.88;44.94
9249;BME280;4660;41.768;26.198;2023-03-18T13:16:21;101307.59;;;13.00;46.58
9249;BME280;4660;41.768;26.198;2023-03-18T13:19:08;101301.09;;;12.73;45.44
9249;BME280;4660;41.768;26.198;2023-03-18T13:40:36;101292.53;;;12.78;47.96
9249;BME280;4660;41.768;26.198;2023-03-18T13:43:14;101267.81;;;12.44;45.54
9249;BME280;4660;41.768;26.198;2023-03-18T13:45:54;101287.41;;;12.55;45.87
9249;BME280;4660;41.768;26.198;2023-03-18T13:48:35;101272.94;;;12.66;48.27
9249;BME280;4660;41.768;26.198;2023-03-18T13:54:03;101288.00;;;12.59;46.29
9249;BME280;4660;41.768;26.198;2023-03-18T13:56:47;101283.16;;;12.62;47.65
9249;BME280;4660;41.768;26.198;2023-03-18T14:05:38;101267.81;;;12.63;51.04
9249;BME280;4660;41.768;26.198;2023-03-18T14:08:45;101274.91;;;12.64;55.15
9249;BME280;4660;41.768;26.198;2023-03-18T14:14:01;101270.09;;;12.77;51.69
9249;BME280;4660;41.768;26.198;2023-03-18T14:16:46;101269.41;;;12.94;51.85
9249;BME280;4660;41.768;26.198;2023-03-18T14:19:24;101271.38;;;12.83;51.23
9249;BME280;4660;41.768;26.198;2023-03-18T14:22:27;101265.56;;;12.87;51.01
9249;BME280;4660;41.768;26.198;2023-03-18T14:28:11;101266.41;;;12.88;48.80
9249;BME280;4660;41.768;26.198;2023-03-18T14:37:07;101267.69;;;12.93;48.55
9249;BME280;4660;41.768;26.198;2023-03-18T14:39:43;101246.78;;;12.95;50.93
9249;BME280;4660;41.768;26.198;2023-03-18T14:45:39;101265.00;;;12.93;51.86
9249;BME280;4660;41.768;26.198;2023-03-18T14:48:28;101260.72;;;12.62;49.26
9249;BME280;4660;41.768;26.198;2023-03-18T14:50:56;101262.13;;;12.85;51.13
9249;BME280;4660;41.768;26.198;2023-03-18T14:53:30;101257.59;;;12.95;52.59
9249;BME280;4660;41.768;26.198;2023-03-18T14:55:59;101256.44;;;13.27;53.70
9249;BME280;4660;41.768;26.198;2023-03-18T14:58:32;101257.53;;;13.34;51.00
9249;BME280;4660;41.768;26.198;2023-03-18T15:01:21;101253.84;;;13.35;49.37
9249;BME280;4660;41.768;26.198;2023-03-18T15:03:55;101247.59;;;13.35;47.01
9249;BME280;4660;41.768;26.198;2023-03-18T15:06:25;101237.94;;;13.13;45.54
9249;BME280;4660;41.768;26.198;2023-03-18T15:09:12;101250.75;;;13.11;46.92
9249;BME280;4660;41.768;26.198;2023-03-18T15:11:44;101262.00;;;12.77;48.73
9249;BME280;4660;41.768;26.198;2023-03-18T15:14:31;101255.31;;;12.81;48.57
9249;BME280;4660;41.768;26.198;2023-03-18T15:17:03;101253.75;;;12.88;49.77
9249;BME280;4660;41.768;26.198;2023-03-18T15:19:30;101263.13;;;12.94;48.29
9249;BME280;4660;41.768;26.198;2023-03-18T15:22:01;101263.72;;;12.88;48.55
9249;BME280;4660;41.768;26.198;2023-03-18T15:24:30;101267.94;;;12.71;51.30
9249;BME280;4660;41.768;26.198;2023-03-18T15:27:04;101276.47;;;12.57;51.73
9249;BME280;4660;41.768;26.198;2023-03-18T15:29:51;101267.94;;;12.71;51.21
9249;BME280;4660;41.768;26.198;2023-03-18T15:32:43;101279.19;;;12.76;51.22
9249;BME280;4660;41.768;26.198;2023-03-18T15:35:25;101278.06;;;13.08;48.87
9249;BME280;4660;41.768;26.198;2023-03-18T15:38:16;101276.34;;;12.97;50.12
9249;BME280;4660;41.768;26.198;2023-03-18T15:44:12;101260.81;;;13.18;47.38